sensor_id;sensor_type;location;lat;lon;timestamp;P1;P2;P0
36453;PMS5003;22478;51.740;-1.314;2023-03-03T00:01:17;19;15;
36453;PMS5003;22478;51.740;-1.314;2023-03-03T00:03:44;12;8;
36453;PMS5003;22478;51.740;-1.314;2023-03-03T00:06:12;8;8;
36453;PMS5003;22478;51.740;-1.314;2023-03-03T00:08:40;8;8;
36453;PMS5003;22478;51.740;-1.314;2023-03-03T00:11:08;14;14;
36453;PMS5003;22478;51.740;-1.314;2023-03-03T00:13:39;8;7;
36453;PMS5003;22478;51.740;-1.314;2023-03-03T00:16:12;7;7;
36453;PMS5003;22478;51.740;-1.314;2023-03-03T00:18:43;10;9;
36453;PMS5003;22478;51.740;-1.314;2023-03-03T00:21:28;13;12;
36453;PMS5003;22478;51.740;-1.314;2023-03-03T00:24:01;17;16;
36453;PMS5003;22478;51.740;-1.314;2023-03-03T00:26:42;7;7;
36453;PMS5003;22478;51.740;-1.314;2023-03-03T00:29:26;11;11;
36453;PMS5003;22478;51.740;-1.314;2023-03-03T00:31:59;16;16;
36453;PMS5003;22478;51.740;-1.314;2023-03-03T00:34:44;21;17;
36453;PMS5003;22478;51.740;-1.314;2023-03-03T00:37:19;16;16;
36453;PMS5003;22478;51.740;-1.314;2023-03-03T00:39:52;9;9;
36453;PMS5003;22478;51.740;-1.314;2023-03-03T00:42:25;8;7;
36453;PMS5003;22478;51.740;-1.314;2023-03-03T00:44:55;13;11;
36453;PMS5003;22478;51.740;-1.314;2023-03-03T00:47:24;9;9;
36453;PMS5003;22478;51.740;-1.314;2023-03-03T00:49:53;11;11;
36453;PMS5003;22478;51.740;-1.314;2023-03-03T00:52:21;9;9;
36453;PMS5003;22478;51.740;-1.314;2023-03-03T00:54:53;9;7;
36453;PMS5003;22478;51.740;-1.314;2023-03-03T00:57:21;8;8;
36453;PMS5003;22478;51.740;-1.314;2023-03-03T00:59:47;11;7;
36453;PMS5003;22478;51.740;-1.314;2023-03-03T01:02:15;7;7;
36453;PMS5003;22478;51.740;-1.314;2023-03-03T01:04:42;8;7;
36453;PMS5003;22478;51.740;-1.314;2023-03-03T01:07:15;7;7;
36453;PMS5003;22478;51.740;-1.314;2023-03-03T01:09:42;8;5;
36453;PMS5003;22478;51.740;-1.314;2023-03-03T01:12:09;7;7;
36453;PMS5003;22478;51.740;-1.314;2023-03-03T01:14:37;8;8;
36453;PMS5003;22478;51.740;-1.314;2023-03-03T01:17:05;7;7;
36453;PMS5003;22478;51.740;-1.314;2023-03-03T01:19:32;9;9;
36453;PMS5003;22478;51.740;-1.314;2023-03-03T01:22:00;7;7;
36453;PMS5003;22478;51.740;-1.314;2023-03-03T01:24:27;12;12;
36453;PMS5003;22478;51.740;-1.314;2023-03-03T01:26:55;11;8;
36453;PMS5003;22478;51.740;-1.314;2023-03-03T01:29:22;14;14;
36453;PMS5003;22478;51.740;-1.314;2023-03-03T01:31:50;7;7;
36453;PMS5003;22478;51.740;-1.314;2023-03-03T01:34:17;14;14;
36453;PMS5003;22478;51.740;-1.314;2023-03-03T01:36:44;8;8;
36453;PMS5003;22478;51.740;-1.314;2023-03-03T01:39:11;9;9;
36453;PMS5003;22478;51.740;-1.314;2023-03-03T01:41:39;8;8;
36453;PMS5003;22478;51.740;-1.314;2023-03-03T01:44:08;7;7;
36453;PMS5003;22478;51.740;-1.314;2023-03-03T01:46:44;13;10;
36453;PMS5003;22478;51.740;-1.314;2023-03-03T01:49:18;12;12;
36453;PMS5003;22478;51.740;-1.314;2023-03-03T01:51:50;15;14;
36453;PMS5003;22478;51.740;-1.314;2023-03-03T01:54:22;11;10;
36453;PMS5003;22478;51.740;-1.314;2023-03-03T01:56:53;10;7;
36453;PMS5003;22478;51.740;-1.314;2023-03-03T01:59:25;11;8;
36453;PMS5003;22478;51.740;-1.314;2023-03-03T02:01:57;18;18;
36453;PMS5003;22478;51.740;-1.314;2023-03-03T02:04:24;21;17;
36453;PMS5003;22478;51.740;-1.314;2023-03-03T02:06:53;18;13;
36453;PMS5003;22478;51.740;-1.314;2023-03-03T02:09:26;18;16;
36453;PMS5003;22478;51.740;-1.314;2023-03-03T02:12:00;23;20;
36453;PMS5003;22478;51.740;-1.314;2023-03-03T02:14:33;28;19;
36453;PMS5003;22478;51.740;-1.314;2023-03-03T02:17:00;24;19;
36453;PMS5003;22478;51.740;-1.314;2023-03-03T02:19:30;22;22;
36453;PMS5003;22478;51.740;-1.314;2023-03-03T02:22:01;22;22;
36453;PMS5003;22478;51.740;-1.314;2023-03-03T02:24:30;31;30;
36453;PMS5003;22478;51.740;-1.314;2023-03-03T02:27:01;28;23;
36453;PMS5003;22478;51.740;-1.314;2023-03-03T02:29:29;20;15;
36453;PMS5003;22478;51.740;-1.314;2023-03-03T02:31:56;25;22;
36453;PMS5003;22478;51.740;-1.314;2023-03-03T02:34:23;16;15;
36453;PMS5003;22478;51.740;-1.314;2023-03-03T02:36:50;23;21;
36453;PMS5003;22478;51.740;-1.314;2023-03-03T02:39:18;15;15;
36453;PMS5003;22478;51.740;-1.314;2023-03-03T02:41:49;27;23;
36453;PMS5003;22478;51.740;-1.314;2023-03-03T02:44:22;19;18;
36453;PMS5003;22478;51.740;-1.314;2023-03-03T02:46:51;18;16;
36453;PMS5003;22478;51.740;-1.314;2023-03-03T02:49:20;30;24;
36453;PMS5003;22478;51.740;-1.314;2023-03-03T02:51:49;22;20;
36453;PMS5003;22478;51.740;-1.314;2023-03-03T02:54:17;27;25;
36453;PMS5003;22478;51.740;-1.314;2023-03-03T02:56:46;20;17;
36453;PMS5003;22478;51.740;-1.314;2023-03-03T02:59:14;21;19;
36453;PMS5003;22478;51.740;-1.314;2023-03-03T03:01:42;15;12;
36453;PMS5003;22478;51.740;-1.314;2023-03-03T03:04:10;18;15;
36453;PMS5003;22478;51.740;-1.314;2023-03-03T03:06:39;12;12;
36453;PMS5003;22478;51.740;-1.314;2023-03-03T03:09:08;14;11;
36453;PMS5003;22478;51.740;-1.314;2023-03-03T03:11:36;19;12;
36453;PMS5003;22478;51.740;-1.314;2023-03-03T03:14:04;14;10;
36453;PMS5003;22478;51.740;-1.314;2023-03-03T03:16:33;11;9;
36453;PMS5003;22478;51.740;-1.314;2023-03-03T03:19:01;13;11;
36453;PMS5003;22478;51.740;-1.314;2023-03-03T03:21:30;14;9;
36453;PMS5003;22478;51.740;-1.314;2023-03-03T03:23:57;15;14;
36453;PMS5003;22478;51.740;-1.314;2023-03-03T03:26:25;16;15;
36453;PMS5003;22478;51.740;-1.314;2023-03-03T03:28:53;15;13;
36453;PMS5003;22478;51.740;-1.314;2023-03-03T03:31:21;12;10;
36453;PMS5003;22478;51.740;-1.314;2023-03-03T03:33:48;9;9;
36453;PMS5003;22478;51.740;-1.314;2023-03-03T03:36:15;10;10;
36453;PMS5003;22478;51.740;-1.314;2023-03-03T03:38:42;9;8;
36453;PMS5003;22478;51.740;-1.314;2023-03-03T03:41:10;10;9;
36453;PMS5003;22478;51.740;-1.314;2023-03-03T03:43:38;12;8;
36453;PMS5003;22478;51.740;-1.314;2023-03-03T03:46:06;9;9;
36453;PMS5003;22478;51.740;-1.314;2023-03-03T03:48:34;10;7;
36453;PMS5003;22478;51.740;-1.314;2023-03-03T03:51:02;7;7;
36453;PMS5003;22478;51.740;-1.314;2023-03-03T03:53:29;9;7;
36453;PMS5003;22478;51.740;-1.314;2023-03-03T03:55:57;12;8;
36453;PMS5003;22478;51.740;-1.314;2023-03-03T03:58:24;14;10;
36453;PMS5003;22478;51.740;-1.314;2023-03-03T04:00:51;8;8;
36453;PMS5003;22478;51.740;-1.314;2023-03-03T04:03:18;13;9;
36453;PMS5003;22478;51.740;-1.314;2023-03-03T04:05:46;8;8;
36453;PMS5003;22478;51.740;-1.314;2023-03-03T04:08:13;12;7;
36453;PMS5003;22478;51.740;-1.314;2023-03-03T04:10:40;8;8;
36453;PMS5003;22478;51.740;-1.314;2023-03-03T04:13:07;12;6;
36453;PMS5003;22478;51.740;-1.314;2023-03-03T04:15:35;9;9;
36453;PMS5003;22478;51.740;-1.314;2023-03-03T04:18:02;13;13;
36453;PMS5003;22478;51.740;-1.314;2023-03-03T04:20:29;16;13;
36453;PMS5003;22478;51.740;-1.314;2023-03-03T04:22:56;13;13;
36453;PMS5003;22478;51.740;-1.314;2023-03-03T04:25:24;13;12;
36453;PMS5003;22478;51.740;-1.314;2023-03-03T04:27:51;9;9;
36453;PMS5003;22478;51.740;-1.314;2023-03-03T04:30:18;15;11;
36453;PMS5003;22478;51.740;-1.314;2023-03-03T04:32:46;10;9;
36453;PMS5003;22478;51.740;-1.314;2023-03-03T04:35:13;10;9;
36453;PMS5003;22478;51.740;-1.314;2023-03-03T04:37:40;14;12;
36453;PMS5003;22478;51.740;-1.314;2023-03-03T04:40:08;12;9;
36453;PMS5003;22478;51.740;-1.314;2023-03-03T04:42:37;13;10;
36453;PMS5003;22478;51.740;-1.314;2023-03-03T04:45:04;13;13;
36453;PMS5003;22478;51.740;-1.314;2023-03-03T04:47:32;15;12;
36453;PMS5003;22478;51.740;-1.314;2023-03-03T04:50:00;10;9;
36453;PMS5003;22478;51.740;-1.314;2023-03-03T04:52:27;13;13;
36453;PMS5003;22478;51.740;-1.314;2023-03-03T04:54:55;8;8;
36453;PMS5003;22478;51.740;-1.314;2023-03-03T04:57:22;9;9;
36453;PMS5003;22478;51.740;-1.314;2023-03-03T04:59:49;13;13;
36453;PMS5003;22478;51.740;-1.314;2023-03-03T05:02:16;17;16;
36453;PMS5003;22478;51.740;-1.314;2023-03-03T05:04:44;15;15;
36453;PMS5003;22478;51.740;-1.314;2023-03-03T05:07:11;15;13;
36453;PMS5003;22478;51.740;-1.314;2023-03-03T05:09:38;20;18;
36453;PMS5003;22478;51.740;-1.314;2023-03-03T05:12:06;11;11;
36453;PMS5003;22478;51.740;-1.314;2023-03-03T05:14:33;13;10;
36453;PMS5003;22478;51.740;-1.314;2023-03-03T05:17:01;14;13;
36453;PMS5003;22478;51.740;-1.314;2023-03-03T05:19:28;14;13;
36453;PMS5003;22478;51.740;-1.314;2023-03-03T05:21:56;15;15;
36453;PMS5003;22478;51.740;-1.314;2023-03-03T05:24:23;10;10;
36453;PMS5003;22478;51.740;-1.314;2023-03-03T05:26:50;15;14;
36453;PMS5003;22478;51.740;-1.314;2023-03-03T05:29:17;9;7;
36453;PMS5003;22478;51.740;-1.314;2023-03-03T05:31:44;19;18;
36453;PMS5003;22478;51.740;-1.314;2023-03-03T05:34:12;10;9;
36453;PMS5003;22478;51.740;-1.314;2023-03-03T05:36:39;15;12;
36453;PMS5003;22478;51.740;-1.314;2023-03-03T05:39:06;11;9;
36453;PMS5003;22478;51.740;-1.314;2023-03-03T05:41:33;15;12;
36453;PMS5003;22478;51.740;-1.314;2023-03-03T05:44:01;11;10;
36453;PMS5003;22478;51.740;-1.314;2023-03-03T05:46:28;13;9;
36453;PMS5003;22478;51.740;-1.314;2023-03-03T05:48:55;11;11;
36453;PMS5003;22478;51.740;-1.314;2023-03-03T05:51:23;10;8;
36453;PMS5003;22478;51.740;-1.314;2023-03-03T05:53:50;11;9;
36453;PMS5003;22478;51.740;-1.314;2023-03-03T05:56:17;9;6;
36453;PMS5003;22478;51.740;-1.314;2023-03-03T05:58:45;13;13;
36453;PMS5003;22478;51.740;-1.314;2023-03-03T06:01:12;9;9;
36453;PMS5003;22478;51.740;-1.314;2023-03-03T06:03:39;9;8;
36453;PMS5003;22478;51.740;-1.314;2023-03-03T06:06:06;14;10;
36453;PMS5003;22478;51.740;-1.314;2023-03-03T06:08:33;10;10;
36453;PMS5003;22478;51.740;-1.314;2023-03-03T06:11:01;10;9;
36453;PMS5003;22478;51.740;-1.314;2023-03-03T06:13:28;14;11;
36453;PMS5003;22478;51.740;-1.314;2023-03-03T06:15:55;10;7;
36453;PMS5003;22478;51.740;-1.314;2023-03-03T06:18:23;11;10;
36453;PMS5003;22478;51.740;-1.314;2023-03-03T06:20:50;11;10;
36453;PMS5003;22478;51.740;-1.314;2023-03-03T06:23:18;7;7;
36453;PMS5003;22478;51.740;-1.314;2023-03-03T06:25:45;13;13;
36453;PMS5003;22478;51.740;-1.314;2023-03-03T06:28:13;9;9;
36453;PMS5003;22478;51.740;-1.314;2023-03-03T06:30:40;14;14;
36453;PMS5003;22478;51.740;-1.314;2023-03-03T06:33:07;11;11;
36453;PMS5003;22478;51.740;-1.314;2023-03-03T06:35:34;17;10;
36453;PMS5003;22478;51.740;-1.314;2023-03-03T06:38:01;11;9;
36453;PMS5003;22478;51.740;-1.314;2023-03-03T06:40:29;10;10;
36453;PMS5003;22478;51.740;-1.314;2023-03-03T06:42:56;16;14;
36453;PMS5003;22478;51.740;-1.314;2023-03-03T06:45:24;13;11;
36453;PMS5003;22478;51.740;-1.314;2023-03-03T06:47:51;9;9;
36453;PMS5003;22478;51.740;-1.314;2023-03-03T06:50:19;10;10;
36453;PMS5003;22478;51.740;-1.314;2023-03-03T06:52:47;10;9;
36453;PMS5003;22478;51.740;-1.314;2023-03-03T06:55:16;8;8;
36453;PMS5003;22478;51.740;-1.314;2023-03-03T06:57:47;12;9;
36453;PMS5003;22478;51.740;-1.314;2023-03-03T07:00:16;14;9;
36453;PMS5003;22478;51.740;-1.314;2023-03-03T07:02:50;6;6;
36453;PMS5003;22478;51.740;-1.314;2023-03-03T07:05:23;9;8;
36453;PMS5003;22478;51.740;-1.314;2023-03-03T07:07:53;15;15;
36453;PMS5003;22478;51.740;-1.314;2023-03-03T07:10:22;11;9;
36453;PMS5003;22478;51.740;-1.314;2023-03-03T07:12:51;14;10;
36453;PMS5003;22478;51.740;-1.314;2023-03-03T07:15:20;7;7;
36453;PMS5003;22478;51.740;-1.314;2023-03-03T07:17:51;17;16;
36453;PMS5003;22478;51.740;-1.314;2023-03-03T07:20:23;10;10;
36453;PMS5003;22478;51.740;-1.314;2023-03-03T07:22:53;10;8;
36453;PMS5003;22478;51.740;-1.314;2023-03-03T07:25:22;9;9;
36453;PMS5003;22478;51.740;-1.314;2023-03-03T07:27:57;11;9;
36453;PMS5003;22478;51.740;-1.314;2023-03-03T07:30:36;11;9;
36453;PMS5003;22478;51.740;-1.314;2023-03-03T07:33:04;7;7;
36453;PMS5003;22478;51.740;-1.314;2023-03-03T07:35:44;7;7;
36453;PMS5003;22478;51.740;-1.314;2023-03-03T07:38:16;7;7;
36453;PMS5003;22478;51.740;-1.314;2023-03-03T07:40:49;8;8;
36453;PMS5003;22478;51.740;-1.314;2023-03-03T07:43:25;10;8;
36453;PMS5003;22478;51.740;-1.314;2023-03-03T07:45:59;7;7;
36453;PMS5003;22478;51.740;-1.314;2023-03-03T07:48:30;9;6;
36453;PMS5003;22478;51.740;-1.314;2023-03-03T07:51:02;8;7;
36453;PMS5003;22478;51.740;-1.314;2023-03-03T07:53:33;8;8;
36453;PMS5003;22478;51.740;-1.314;2023-03-03T07:56:01;11;9;
36453;PMS5003;22478;51.740;-1.314;2023-03-03T07:58:34;9;9;
36453;PMS5003;22478;51.740;-1.314;2023-03-03T08:01:36;11;9;
36453;PMS5003;22478;51.740;-1.314;2023-03-03T08:04:11;9;9;
36453;PMS5003;22478;51.740;-1.314;2023-03-03T08:06:44;14;13;
36453;PMS5003;22478;51.740;-1.314;2023-03-03T08:09:41;8;8;
36453;PMS5003;22478;51.740;-1.314;2023-03-03T08:12:16;11;8;
36453;PMS5003;22478;51.740;-1.314;2023-03-03T08:14:48;9;8;
36453;PMS5003;22478;51.740;-1.314;2023-03-03T08:17:19;10;9;
36453;PMS5003;22478;51.740;-1.314;2023-03-03T08:19:47;13;13;
36453;PMS5003;22478;51.740;-1.314;2023-03-03T08:22:16;14;9;
36453;PMS5003;22478;51.740;-1.314;2023-03-03T08:24:44;6;6;
36453;PMS5003;22478;51.740;-1.314;2023-03-03T08:27:12;8;8;
36453;PMS5003;22478;51.740;-1.314;2023-03-03T08:29:39;19;15;
36453;PMS5003;22478;51.740;-1.314;2023-03-03T08:32:06;10;9;
36453;PMS5003;22478;51.740;-1.314;2023-03-03T08:34:33;9;7;
36453;PMS5003;22478;51.740;-1.314;2023-03-03T08:37:01;10;8;
36453;PMS5003;22478;51.740;-1.314;2023-03-03T08:39:28;11;8;
36453;PMS5003;22478;51.740;-1.314;2023-03-03T08:41:55;9;9;
36453;PMS5003;22478;51.740;-1.314;2023-03-03T08:44:22;11;11;
36453;PMS5003;22478;51.740;-1.314;2023-03-03T08:46:49;8;8;
36453;PMS5003;22478;51.740;-1.314;2023-03-03T08:49:17;10;8;
36453;PMS5003;22478;51.740;-1.314;2023-03-03T08:51:44;10;8;
36453;PMS5003;22478;51.740;-1.314;2023-03-03T08:54:11;14;14;
36453;PMS5003;22478;51.740;-1.314;2023-03-03T08:56:38;7;6;
36453;PMS5003;22478;51.740;-1.314;2023-03-03T08:59:05;8;8;
36453;PMS5003;22478;51.740;-1.314;2023-03-03T09:01:33;7;7;
36453;PMS5003;22478;51.740;-1.314;2023-03-03T09:04:01;7;7;
36453;PMS5003;22478;51.740;-1.314;2023-03-03T09:06:28;8;8;
36453;PMS5003;22478;51.740;-1.314;2023-03-03T09:08:55;8;8;
36453;PMS5003;22478;51.740;-1.314;2023-03-03T09:11:23;6;6;
36453;PMS5003;22478;51.740;-1.314;2023-03-03T09:13:53;7;7;
36453;PMS5003;22478;51.740;-1.314;2023-03-03T09:16:33;8;7;
36453;PMS5003;22478;51.740;-1.314;2023-03-03T09:19:15;5;5;
36453;PMS5003;22478;51.740;-1.314;2023-03-03T09:21:47;6;6;
36453;PMS5003;22478;51.740;-1.314;2023-03-03T09:24:17;5;5;
36453;PMS5003;22478;51.740;-1.314;2023-03-03T09:26:50;8;8;
36453;PMS5003;22478;51.740;-1.314;2023-03-03T09:29:22;7;7;
36453;PMS5003;22478;51.740;-1.314;2023-03-03T09:31:51;5;5;
36453;PMS5003;22478;51.740;-1.314;2023-03-03T09:34:21;7;6;
36453;PMS5003;22478;51.740;-1.314;2023-03-03T09:36:51;7;6;
36453;PMS5003;22478;51.740;-1.314;2023-03-03T09:39:20;6;6;
36453;PMS5003;22478;51.740;-1.314;2023-03-03T09:42:56;6;6;
36453;PMS5003;22478;51.740;-1.314;2023-03-03T09:45:36;10;10;
36453;PMS5003;22478;51.740;-1.314;2023-03-03T09:48:33;8;7;
36453;PMS5003;22478;51.740;-1.314;2023-03-03T09:51:18;14;10;
36453;PMS5003;22478;51.740;-1.314;2023-03-03T09:54:03;11;10;
36453;PMS5003;22478;51.740;-1.314;2023-03-03T09:56:41;10;9;
36453;PMS5003;22478;51.740;-1.314;2023-03-03T09:59:17;9;9;
36453;PMS5003;22478;51.740;-1.314;2023-03-03T10:01:57;12;10;
36453;PMS5003;22478;51.740;-1.314;2023-03-03T10:04:39;9;9;
36453;PMS5003;22478;51.740;-1.314;2023-03-03T10:07:18;7;7;
36453;PMS5003;22478;51.740;-1.314;2023-03-03T10:09:59;8;7;
36453;PMS5003;22478;51.740;-1.314;2023-03-03T10:12:42;12;12;
36453;PMS5003;22478;51.740;-1.314;2023-03-03T10:15:26;6;6;
36453;PMS5003;22478;51.740;-1.314;2023-03-03T10:18:07;9;8;
36453;PMS5003;22478;51.740;-1.314;2023-03-03T10:20:44;7;7;
36453;PMS5003;22478;51.740;-1.314;2023-03-03T10:23:23;6;6;
36453;PMS5003;22478;51.740;-1.314;2023-03-03T10:26:05;9;7;
36453;PMS5003;22478;51.740;-1.314;2023-03-03T10:29:01;10;8;
36453;PMS5003;22478;51.740;-1.314;2023-03-03T10:31:41;9;7;
36453;PMS5003;22478;51.740;-1.314;2023-03-03T10:34:20;10;9;
36453;PMS5003;22478;51.740;-1.314;2023-03-03T10:36:56;7;6;
36453;PMS5003;22478;51.740;-1.314;2023-03-03T10:39:38;5;5;
36453;PMS5003;22478;51.740;-1.314;2023-03-03T10:42:23;12;12;
36453;PMS5003;22478;51.740;-1.314;2023-03-03T10:45:08;6;6;
36453;PMS5003;22478;51.740;-1.314;2023-03-03T10:47:51;11;9;
36453;PMS5003;22478;51.740;-1.314;2023-03-03T10:50:30;11;10;
36453;PMS5003;22478;51.740;-1.314;2023-03-03T10:53:12;6;4;
36453;PMS5003;22478;51.740;-1.314;2023-03-03T10:55:47;10;10;
36453;PMS5003;22478;51.740;-1.314;2023-03-03T10:58:31;8;7;
36453;PMS5003;22478;51.740;-1.314;2023-03-03T11:01:07;7;7;
36453;PMS5003;22478;51.740;-1.314;2023-03-03T11:03:51;5;4;
36453;PMS5003;22478;51.740;-1.314;2023-03-03T11:06:39;7;6;
36453;PMS5003;22478;51.740;-1.314;2023-03-03T11:09:15;9;9;
36453;PMS5003;22478;51.740;-1.314;2023-03-03T11:11:55;6;6;
36453;PMS5003;22478;51.740;-1.314;2023-03-03T11:14:31;14;12;
36453;PMS5003;22478;51.740;-1.314;2023-03-03T11:17:04;15;13;
36453;PMS5003;22478;51.740;-1.314;2023-03-03T11:19:45;8;8;
36453;PMS5003;22478;51.740;-1.314;2023-03-03T11:22:27;10;10;
36453;PMS5003;22478;51.740;-1.314;2023-03-03T11:25:08;11;11;
36453;PMS5003;22478;51.740;-1.314;2023-03-03T11:27:50;6;6;
36453;PMS5003;22478;51.740;-1.314;2023-03-03T11:30:28;11;11;
36453;PMS5003;22478;51.740;-1.314;2023-03-03T11:33:02;8;8;
36453;PMS5003;22478;51.740;-1.314;2023-03-03T11:35:37;6;6;
36453;PMS5003;22478;51.740;-1.314;2023-03-03T11:38:18;4;4;
36453;PMS5003;22478;51.740;-1.314;2023-03-03T11:40:57;7;6;
36453;PMS5003;22478;51.740;-1.314;2023-03-03T11:43:28;5;5;
36453;PMS5003;22478;51.740;-1.314;2023-03-03T11:45:59;14;14;
36453;PMS5003;22478;51.740;-1.314;2023-03-03T11:48:35;13;11;
36453;PMS5003;22478;51.740;-1.314;2023-03-03T11:51:11;7;7;
36453;PMS5003;22478;51.740;-1.314;2023-03-03T11:53:48;14;12;
36453;PMS5003;22478;51.740;-1.314;2023-03-03T11:56:23;20;20;
36453;PMS5003;22478;51.740;-1.314;2023-03-03T11:59:01;13;13;
36453;PMS5003;22478;51.740;-1.314;2023-03-03T12:01:41;14;11;
36453;PMS5003;22478;51.740;-1.314;2023-03-03T12:04:17;6;6;
36453;PMS5003;22478;51.740;-1.314;2023-03-03T12:06:52;9;7;
36453;PMS5003;22478;51.740;-1.314;2023-03-03T12:09:32;6;6;
36453;PMS5003;22478;51.740;-1.314;2023-03-03T12:12:11;4;4;
36453;PMS5003;22478;51.740;-1.314;2023-03-03T12:14:46;7;5;
36453;PMS5003;22478;51.740;-1.314;2023-03-03T12:17:35;3;3;
36453;PMS5003;22478;51.740;-1.314;2023-03-03T12:20:14;4;4;
36453;PMS5003;22478;51.740;-1.314;2023-03-03T12:22:51;9;8;
36453;PMS5003;22478;51.740;-1.314;2023-03-03T12:25:32;9;9;
36453;PMS5003;22478;51.740;-1.314;2023-03-03T12:28:03;5;4;
36453;PMS5003;22478;51.740;-1.314;2023-03-03T12:30:40;13;13;
36453;PMS5003;22478;51.740;-1.314;2023-03-03T12:33:26;7;4;
36453;PMS5003;22478;51.740;-1.314;2023-03-03T12:36:09;8;8;
36453;PMS5003;22478;51.740;-1.314;2023-03-03T12:38:45;4;4;
36453;PMS5003;22478;51.740;-1.314;2023-03-03T12:41:20;8;5;
36453;PMS5003;22478;51.740;-1.314;2023-03-03T12:43:55;3;3;
36453;PMS5003;22478;51.740;-1.314;2023-03-03T12:46:32;4;4;
36453;PMS5003;22478;51.740;-1.314;2023-03-03T12:49:06;6;6;
36453;PMS5003;22478;51.740;-1.314;2023-03-03T12:51:37;15;12;
36453;PMS5003;22478;51.740;-1.314;2023-03-03T12:54:15;6;6;
36453;PMS5003;22478;51.740;-1.314;2023-03-03T12:56:54;7;6;
36453;PMS5003;22478;51.740;-1.314;2023-03-03T12:59:30;8;6;
36453;PMS5003;22478;51.740;-1.314;2023-03-03T13:02:17;9;6;
36453;PMS5003;22478;51.740;-1.314;2023-03-03T13:05:01;7;7;
36453;PMS5003;22478;51.740;-1.314;2023-03-03T13:07:37;13;11;
36453;PMS5003;22478;51.740;-1.314;2023-03-03T13:10:12;7;6;
36453;PMS5003;22478;51.740;-1.314;2023-03-03T13:12:48;4;4;
36453;PMS5003;22478;51.740;-1.314;2023-03-03T13:15:22;5;5;
36453;PMS5003;22478;51.740;-1.314;2023-03-03T13:17:57;8;6;
36453;PMS5003;22478;51.740;-1.314;2023-03-03T13:20:38;7;5;
36453;PMS5003;22478;51.740;-1.314;2023-03-03T13:23:11;3;3;
36453;PMS5003;22478;51.740;-1.314;2023-03-03T13:25:49;6;6;
36453;PMS5003;22478;51.740;-1.314;2023-03-03T13:28:24;7;5;
36453;PMS5003;22478;51.740;-1.314;2023-03-03T13:31:01;12;11;
36453;PMS5003;22478;51.740;-1.314;2023-03-03T13:33:34;8;7;
36453;PMS5003;22478;51.740;-1.314;2023-03-03T13:36:02;14;14;
36453;PMS5003;22478;51.740;-1.314;2023-03-03T13:38:36;10;9;
36453;PMS5003;22478;51.740;-1.314;2023-03-03T13:41:09;4;4;
36453;PMS5003;22478;51.740;-1.314;2023-03-03T13:43:45;8;8;
36453;PMS5003;22478;51.740;-1.314;2023-03-03T13:46:20;6;6;
36453;PMS5003;22478;51.740;-1.314;2023-03-03T13:49:01;6;6;
36453;PMS5003;22478;51.740;-1.314;2023-03-03T13:51:45;6;6;
36453;PMS5003;22478;51.740;-1.314;2023-03-03T13:54:25;6;6;
36453;PMS5003;22478;51.740;-1.314;2023-03-03T13:57:16;8;8;
36453;PMS5003;22478;51.740;-1.314;2023-03-03T13:59:54;6;6;
36453;PMS5003;22478;51.740;-1.314;2023-03-03T14:02:39;9;9;
36453;PMS5003;22478;51.740;-1.314;2023-03-03T14:05:15;6;6;
36453;PMS5003;22478;51.740;-1.314;2023-03-03T14:07:50;6;6;
36453;PMS5003;22478;51.740;-1.314;2023-03-03T14:10:23;8;7;
36453;PMS5003;22478;51.740;-1.314;2023-03-03T14:12:57;5;5;
36453;PMS5003;22478;51.740;-1.314;2023-03-03T14:15:31;7;6;
36453;PMS5003;22478;51.740;-1.314;2023-03-03T14:18:04;5;5;
36453;PMS5003;22478;51.740;-1.314;2023-03-03T14:20:43;6;4;
36453;PMS5003;22478;51.740;-1.314;2023-03-03T14:23:15;3;3;
36453;PMS5003;22478;51.740;-1.314;2023-03-03T14:25:52;5;5;
36453;PMS5003;22478;51.740;-1.314;2023-03-03T14:28:23;6;4;
36453;PMS5003;22478;51.740;-1.314;2023-03-03T14:30:54;8;7;
36453;PMS5003;22478;51.740;-1.314;2023-03-03T14:33:27;8;6;
36453;PMS5003;22478;51.740;-1.314;2023-03-03T14:36:04;4;4;
36453;PMS5003;22478;51.740;-1.314;2023-03-03T14:38:37;6;4;
36453;PMS5003;22478;51.740;-1.314;2023-03-03T14:41:12;5;4;
36453;PMS5003;22478;51.740;-1.314;2023-03-03T14:43:42;4;4;
36453;PMS5003;22478;51.740;-1.314;2023-03-03T14:46:42;6;6;
36453;PMS5003;22478;51.740;-1.314;2023-03-03T14:49:13;9;8;
36453;PMS5003;22478;51.740;-1.314;2023-03-03T14:51:53;5;5;
36453;PMS5003;22478;51.740;-1.314;2023-03-03T14:54:28;4;4;
36453;PMS5003;22478;51.740;-1.314;2023-03-03T14:57:02;4;4;
36453;PMS5003;22478;51.740;-1.314;2023-03-03T14:59:37;8;6;
36453;PMS5003;22478;51.740;-1.314;2023-03-03T15:02:37;10;10;
36453;PMS5003;22478;51.740;-1.314;2023-03-03T15:05:24;6;6;
36453;PMS5003;22478;51.740;-1.314;2023-03-03T15:07:52;11;9;
36453;PMS5003;22478;51.740;-1.314;2023-03-03T15:10:26;7;7;
36453;PMS5003;22478;51.740;-1.314;2023-03-03T15:12:55;8;8;
36453;PMS5003;22478;51.740;-1.314;2023-03-03T15:15:23;9;9;
36453;PMS5003;22478;51.740;-1.314;2023-03-03T15:17:53;7;7;
36453;PMS5003;22478;51.740;-1.314;2023-03-03T15:20:26;3;3;
36453;PMS5003;22478;51.740;-1.314;2023-03-03T15:23:07;3;3;
36453;PMS5003;22478;51.740;-1.314;2023-03-03T15:25:45;3;3;
36453;PMS5003;22478;51.740;-1.314;2023-03-03T15:28:18;3;3;
36453;PMS5003;22478;51.740;-1.314;2023-03-03T15:30:55;4;4;
36453;PMS5003;22478;51.740;-1.314;2023-03-03T15:33:29;3;3;
36453;PMS5003;22478;51.740;-1.314;2023-03-03T15:36:03;5;3;
36453;PMS5003;22478;51.740;-1.314;2023-03-03T15:38:43;2;2;
36453;PMS5003;22478;51.740;-1.314;2023-03-03T15:41:24;2;2;
36453;PMS5003;22478;51.740;-1.314;2023-03-03T15:44:05;4;4;
36453;PMS5003;22478;51.740;-1.314;2023-03-03T15:46:44;5;5;
36453;PMS5003;22478;51.740;-1.314;2023-03-03T15:49:32;7;5;
36453;PMS5003;22478;51.740;-1.314;2023-03-03T15:52:19;5;5;
36453;PMS5003;22478;51.740;-1.314;2023-03-03T15:54:59;4;4;
36453;PMS5003;22478;51.740;-1.314;2023-03-03T15:57:41;7;6;
36453;PMS5003;22478;51.740;-1.314;2023-03-03T16:00:24;5;3;
36453;PMS5003;22478;51.740;-1.314;2023-03-03T16:03:00;5;5;
36453;PMS5003;22478;51.740;-1.314;2023-03-03T16:05:38;4;4;
36453;PMS5003;22478;51.740;-1.314;2023-03-03T16:08:13;9;9;
36453;PMS5003;22478;51.740;-1.314;2023-03-03T16:10:48;9;5;
36453;PMS5003;22478;51.740;-1.314;2023-03-03T16:13:30;5;5;
36453;PMS5003;22478;51.740;-1.314;2023-03-03T16:16:14;3;3;
36453;PMS5003;22478;51.740;-1.314;2023-03-03T16:18:55;8;7;
36453;PMS5003;22478;51.740;-1.314;2023-03-03T16:21:33;8;6;
36453;PMS5003;22478;51.740;-1.314;2023-03-03T16:24:18;10;8;
36453;PMS5003;22478;51.740;-1.314;2023-03-03T16:26:56;8;6;
36453;PMS5003;22478;51.740;-1.314;2023-03-03T16:29:33;11;11;
36453;PMS5003;22478;51.740;-1.314;2023-03-03T16:32:10;11;11;
36453;PMS5003;22478;51.740;-1.314;2023-03-03T16:34:46;14;10;
36453;PMS5003;22478;51.740;-1.314;2023-03-03T16:37:24;10;9;
36453;PMS5003;22478;51.740;-1.314;2023-03-03T16:39:59;13;11;
36453;PMS5003;22478;51.740;-1.314;2023-03-03T16:42:34;10;10;
36453;PMS5003;22478;51.740;-1.314;2023-03-03T16:45:04;12;12;
36453;PMS5003;22478;51.740;-1.314;2023-03-03T16:47:48;11;10;
36453;PMS5003;22478;51.740;-1.314;2023-03-03T16:50:26;9;9;
36453;PMS5003;22478;51.740;-1.314;2023-03-03T16:53:08;15;12;
36453;PMS5003;22478;51.740;-1.314;2023-03-03T16:55:44;14;14;
36453;PMS5003;22478;51.740;-1.314;2023-03-03T16:58:25;14;14;
36453;PMS5003;22478;51.740;-1.314;2023-03-03T17:01:04;24;22;